Aviation WX

[Source: ADDS]
METAR
KFKL 220035Z AUTO 35003KT 10SM CLR 24/19 A3000 RMK AO1 =
TAF
KFKL 212328Z 2200/2224 31004KT P6SM SCT250 FM220700 00000KT 5SM BR SCT250 FM220800 00000KT 1SM BR BKN250 FM221200 15003KT 5SM BR BKN090 FM221400 18005KT P6SM -SHRA VCTS OVC060CB FM221900 18007KT 6SM -SHRA VCTS OVC015CB AMD LTD TO CLD VIS AND WIND =